sensor_id;sensor_type;location;lat;lon;timestamp;P1;durP1;ratioP1;P2;durP2;ratioP2
17662;SDS011;8950;56.892;15.090;2023-09-19T00:02:20;0.80;;;0.80;;
17662;SDS011;8950;56.892;15.090;2023-09-19T00:04:47;0.80;;;0.80;;
17662;SDS011;8950;56.892;15.090;2023-09-19T00:07:15;0.75;;;0.75;;
17662;SDS011;8950;56.892;15.090;2023-09-19T00:09:42;0.90;;;0.90;;
17662;SDS011;8950;56.892;15.090;2023-09-19T00:12:09;0.90;;;0.90;;
17662;SDS011;8950;56.892;15.090;2023-09-19T00:14:38;0.75;;;0.75;;
17662;SDS011;8950;56.892;15.090;2023-09-19T00:17:05;0.80;;;0.80;;
17662;SDS011;8950;56.892;15.090;2023-09-19T00:19:33;0.80;;;0.80;;
17662;SDS011;8950;56.892;15.090;2023-09-19T00:22:01;0.80;;;0.80;;
17662;SDS011;8950;56.892;15.090;2023-09-19T00:24:28;0.75;;;0.75;;
17662;SDS011;8950;56.892;15.090;2023-09-19T00:26:54;0.80;;;0.80;;
17662;SDS011;8950;56.892;15.090;2023-09-19T00:29:21;0.70;;;0.70;;
17662;SDS011;8950;56.892;15.090;2023-09-19T00:31:48;0.70;;;0.70;;
17662;SDS011;8950;56.892;15.090;2023-09-19T00:34:15;0.73;;;0.73;;
17662;SDS011;8950;56.892;15.090;2023-09-19T00:36:42;1.15;;;1.00;;
17662;SDS011;8950;56.892;15.090;2023-09-19T00:39:10;0.80;;;0.80;;
17662;SDS011;8950;56.892;15.090;2023-09-19T00:41:37;0.80;;;0.80;;
17662;SDS011;8950;56.892;15.090;2023-09-19T00:44:04;0.73;;;0.73;;
17662;SDS011;8950;56.892;15.090;2023-09-19T00:46:31;0.70;;;0.70;;
17662;SDS011;8950;56.892;15.090;2023-09-19T00:48:58;0.80;;;0.80;;
17662;SDS011;8950;56.892;15.090;2023-09-19T00:51:25;0.82;;;0.82;;
17662;SDS011;8950;56.892;15.090;2023-09-19T00:53:52;0.80;;;0.80;;
17662;SDS011;8950;56.892;15.090;2023-09-19T00:56:20;0.80;;;0.80;;
17662;SDS011;8950;56.892;15.090;2023-09-19T00:58:48;0.82;;;0.82;;
17662;SDS011;8950;56.892;15.090;2023-09-19T01:01:14;0.88;;;0.88;;
17662;SDS011;8950;56.892;15.090;2023-09-19T01:03:42;0.90;;;0.90;;
17662;SDS011;8950;56.892;15.090;2023-09-19T01:06:08;0.90;;;0.90;;
17662;SDS011;8950;56.892;15.090;2023-09-19T01:08:34;0.70;;;0.70;;
17662;SDS011;8950;56.892;15.090;2023-09-19T01:11:04;1.00;;;1.00;;
17662;SDS011;8950;56.892;15.090;2023-09-19T01:13:40;1.00;;;1.00;;
17662;SDS011;8950;56.892;15.090;2023-09-19T01:16:10;0.80;;;0.80;;
17662;SDS011;8950;56.892;15.090;2023-09-19T01:18:40;0.85;;;0.85;;
17662;SDS011;8950;56.892;15.090;2023-09-19T01:21:08;0.80;;;0.80;;
17662;SDS011;8950;56.892;15.090;2023-09-19T01:23:40;0.93;;;0.93;;
17662;SDS011;8950;56.892;15.090;2023-09-19T01:26:18;0.70;;;0.70;;
17662;SDS011;8950;56.892;15.090;2023-09-19T01:28:57;0.88;;;0.88;;
17662;SDS011;8950;56.892;15.090;2023-09-19T01:31:31;0.70;;;0.70;;
17662;SDS011;8950;56.892;15.090;2023-09-19T01:33:59;6.50;;;2.50;;
17662;SDS011;8950;56.892;15.090;2023-09-19T01:36:29;0.70;;;0.70;;
17662;SDS011;8950;56.892;15.090;2023-09-19T01:38:58;0.80;;;0.80;;
17662;SDS011;8950;56.892;15.090;2023-09-19T01:41:33;1.45;;;1.35;;
17662;SDS011;8950;56.892;15.090;2023-09-19T01:44:03;0.98;;;0.98;;
17662;SDS011;8950;56.892;15.090;2023-09-19T01:46:34;0.80;;;0.80;;
17662;SDS011;8950;56.892;15.090;2023-09-19T01:49:04;0.80;;;0.80;;
17662;SDS011;8950;56.892;15.090;2023-09-19T01:51:37;0.70;;;0.70;;
17662;SDS011;8950;56.892;15.090;2023-09-19T01:54:09;0.80;;;0.80;;
17662;SDS011;8950;56.892;15.090;2023-09-19T01:56:36;0.80;;;0.80;;
17662;SDS011;8950;56.892;15.090;2023-09-19T01:59:04;0.70;;;0.70;;
17662;SDS011;8950;56.892;15.090;2023-09-19T02:01:33;0.85;;;0.85;;
17662;SDS011;8950;56.892;15.090;2023-09-19T02:04:02;0.80;;;0.80;;
17662;SDS011;8950;56.892;15.090;2023-09-19T02:06:29;0.98;;;0.98;;
17662;SDS011;8950;56.892;15.090;2023-09-19T02:08:55;0.70;;;0.70;;
17662;SDS011;8950;56.892;15.090;2023-09-19T02:11:22;0.70;;;0.70;;
17662;SDS011;8950;56.892;15.090;2023-09-19T02:13:49;1.55;;;1.48;;
17662;SDS011;8950;56.892;15.090;2023-09-19T02:16:19;0.77;;;0.77;;
17662;SDS011;8950;56.892;15.090;2023-09-19T02:18:47;0.90;;;0.90;;
17662;SDS011;8950;56.892;15.090;2023-09-19T02:21:13;0.80;;;0.80;;
17662;SDS011;8950;56.892;15.090;2023-09-19T02:23:40;0.80;;;0.80;;
17662;SDS011;8950;56.892;15.090;2023-09-19T02:26:06;0.80;;;0.80;;
17662;SDS011;8950;56.892;15.090;2023-09-19T02:28:33;0.90;;;0.90;;
17662;SDS011;8950;56.892;15.090;2023-09-19T02:31:00;0.90;;;0.90;;
17662;SDS011;8950;56.892;15.090;2023-09-19T02:33:27;0.80;;;0.80;;
17662;SDS011;8950;56.892;15.090;2023-09-19T02:35:59;0.75;;;0.75;;
17662;SDS011;8950;56.892;15.090;2023-09-19T02:38:25;0.73;;;0.73;;
17662;SDS011;8950;56.892;15.090;2023-09-19T02:40:52;0.90;;;0.90;;
17662;SDS011;8950;56.892;15.090;2023-09-19T02:43:20;0.80;;;0.80;;
17662;SDS011;8950;56.892;15.090;2023-09-19T02:45:47;0.80;;;0.80;;
17662;SDS011;8950;56.892;15.090;2023-09-19T02:48:14;0.90;;;0.90;;
17662;SDS011;8950;56.892;15.090;2023-09-19T02:50:41;0.90;;;0.90;;
17662;SDS011;8950;56.892;15.090;2023-09-19T02:53:09;0.80;;;0.80;;
17662;SDS011;8950;56.892;15.090;2023-09-19T02:55:38;0.70;;;0.70;;
17662;SDS011;8950;56.892;15.090;2023-09-19T02:58:05;0.80;;;0.80;;
17662;SDS011;8950;56.892;15.090;2023-09-19T03:00:33;0.90;;;0.90;;
17662;SDS011;8950;56.892;15.090;2023-09-19T03:03:00;0.82;;;0.82;;
17662;SDS011;8950;56.892;15.090;2023-09-19T03:05:27;1.00;;;1.00;;
17662;SDS011;8950;56.892;15.090;2023-09-19T03:07:56;0.98;;;0.98;;
17662;SDS011;8950;56.892;15.090;2023-09-19T03:10:23;0.90;;;0.90;;
17662;SDS011;8950;56.892;15.090;2023-09-19T03:12:50;0.65;;;0.65;;
17662;SDS011;8950;56.892;15.090;2023-09-19T03:15:17;1.10;;;1.10;;
17662;SDS011;8950;56.892;15.090;2023-09-19T03:17:43;0.90;;;0.90;;
17662;SDS011;8950;56.892;15.090;2023-09-19T03:20:10;0.80;;;0.80;;
17662;SDS011;8950;56.892;15.090;2023-09-19T03:22:42;0.95;;;0.95;;
17662;SDS011;8950;56.892;15.090;2023-09-19T03:25:08;0.90;;;0.90;;
17662;SDS011;8950;56.892;15.090;2023-09-19T03:27:38;0.75;;;0.75;;
17662;SDS011;8950;56.892;15.090;2023-09-19T03:30:05;0.80;;;0.80;;
17662;SDS011;8950;56.892;15.090;2023-09-19T03:32:33;0.80;;;0.80;;
17662;SDS011;8950;56.892;15.090;2023-09-19T03:35:00;0.90;;;0.90;;
17662;SDS011;8950;56.892;15.090;2023-09-19T03:37:27;0.90;;;0.90;;
17662;SDS011;8950;56.892;15.090;2023-09-19T03:39:53;0.90;;;0.90;;
17662;SDS011;8950;56.892;15.090;2023-09-19T03:42:20;0.77;;;0.77;;
17662;SDS011;8950;56.892;15.090;2023-09-19T03:44:52;0.80;;;0.80;;
17662;SDS011;8950;56.892;15.090;2023-09-19T03:47:20;0.80;;;0.80;;
17662;SDS011;8950;56.892;15.090;2023-09-19T03:49:46;0.70;;;0.70;;
17662;SDS011;8950;56.892;15.090;2023-09-19T03:52:13;0.82;;;0.82;;
17662;SDS011;8950;56.892;15.090;2023-09-19T03:54:40;0.80;;;0.80;;
17662;SDS011;8950;56.892;15.090;2023-09-19T03:57:07;0.80;;;0.80;;
17662;SDS011;8950;56.892;15.090;2023-09-19T03:59:34;0.80;;;0.80;;
17662;SDS011;8950;56.892;15.090;2023-09-19T04:02:02;0.70;;;0.70;;
17662;SDS011;8950;56.892;15.090;2023-09-19T04:04:29;0.77;;;0.77;;
17662;SDS011;8950;56.892;15.090;2023-09-19T04:06:56;0.90;;;0.90;;
17662;SDS011;8950;56.892;15.090;2023-09-19T04:09:23;0.90;;;0.90;;
17662;SDS011;8950;56.892;15.090;2023-09-19T04:11:49;0.73;;;0.73;;
17662;SDS011;8950;56.892;15.090;2023-09-19T04:14:16;0.70;;;0.70;;
17662;SDS011;8950;56.892;15.090;2023-09-19T04:16:42;0.90;;;0.90;;
17662;SDS011;8950;56.892;15.090;2023-09-19T04:19:10;0.90;;;0.90;;
17662;SDS011;8950;56.892;15.090;2023-09-19T04:21:37;0.80;;;0.80;;
17662;SDS011;8950;56.892;15.090;2023-09-19T04:24:04;0.70;;;0.70;;
17662;SDS011;8950;56.892;15.090;2023-09-19T04:26:31;0.80;;;0.80;;
17662;SDS011;8950;56.892;15.090;2023-09-19T04:28:58;0.70;;;0.70;;
17662;SDS011;8950;56.892;15.090;2023-09-19T04:31:26;1.00;;;1.00;;
17662;SDS011;8950;56.892;15.090;2023-09-19T04:33:52;0.70;;;0.70;;
17662;SDS011;8950;56.892;15.090;2023-09-19T04:36:20;0.80;;;0.80;;
17662;SDS011;8950;56.892;15.090;2023-09-19T04:38:47;0.80;;;0.80;;
17662;SDS011;8950;56.892;15.090;2023-09-19T04:41:15;0.80;;;0.80;;
17662;SDS011;8950;56.892;15.090;2023-09-19T04:43:42;0.70;;;0.70;;
17662;SDS011;8950;56.892;15.090;2023-09-19T04:46:09;0.77;;;0.77;;
17662;SDS011;8950;56.892;15.090;2023-09-19T04:48:35;0.80;;;0.80;;
17662;SDS011;8950;56.892;15.090;2023-09-19T04:51:03;0.90;;;0.90;;
17662;SDS011;8950;56.892;15.090;2023-09-19T04:53:30;0.70;;;0.70;;
17662;SDS011;8950;56.892;15.090;2023-09-19T04:55:57;0.70;;;0.70;;
17662;SDS011;8950;56.892;15.090;2023-09-19T04:58:23;0.88;;;0.88;;
17662;SDS011;8950;56.892;15.090;2023-09-19T05:00:50;0.80;;;0.80;;
17662;SDS011;8950;56.892;15.090;2023-09-19T05:03:17;0.77;;;0.77;;
17662;SDS011;8950;56.892;15.090;2023-09-19T05:05:45;0.70;;;0.70;;
17662;SDS011;8950;56.892;15.090;2023-09-19T05:08:11;0.90;;;0.90;;
17662;SDS011;8950;56.892;15.090;2023-09-19T05:10:41;0.80;;;0.80;;
17662;SDS011;8950;56.892;15.090;2023-09-19T05:13:07;0.80;;;0.80;;
17662;SDS011;8950;56.892;15.090;2023-09-19T05:15:34;0.90;;;0.90;;
17662;SDS011;8950;56.892;15.090;2023-09-19T05:18:01;1.08;;;1.08;;
17662;SDS011;8950;56.892;15.090;2023-09-19T05:20:28;1.27;;;1.27;;
17662;SDS011;8950;56.892;15.090;2023-09-19T05:23:00;0.77;;;0.77;;
17662;SDS011;8950;56.892;15.090;2023-09-19T05:25:28;0.82;;;0.82;;
17662;SDS011;8950;56.892;15.090;2023-09-19T05:27:58;0.80;;;0.80;;
17662;SDS011;8950;56.892;15.090;2023-09-19T05:30:25;0.90;;;0.90;;
17662;SDS011;8950;56.892;15.090;2023-09-19T05:32:54;1.30;;;1.30;;
17662;SDS011;8950;56.892;15.090;2023-09-19T05:35:21;0.88;;;0.88;;
17662;SDS011;8950;56.892;15.090;2023-09-19T05:37:47;0.80;;;0.80;;
17662;SDS011;8950;56.892;15.090;2023-09-19T05:40:16;0.70;;;0.70;;
17662;SDS011;8950;56.892;15.090;2023-09-19T05:42:42;0.80;;;0.80;;
17662;SDS011;8950;56.892;15.090;2023-09-19T05:45:10;0.70;;;0.70;;
17662;SDS011;8950;56.892;15.090;2023-09-19T05:47:38;1.23;;;1.23;;
17662;SDS011;8950;56.892;15.090;2023-09-19T05:50:05;0.80;;;0.80;;
17662;SDS011;8950;56.892;15.090;2023-09-19T05:52:33;0.70;;;0.70;;
17662;SDS011;8950;56.892;15.090;2023-09-19T05:54:59;0.80;;;0.80;;
17662;SDS011;8950;56.892;15.090;2023-09-19T05:57:25;0.93;;;0.93;;
17662;SDS011;8950;56.892;15.090;2023-09-19T05:59:52;0.70;;;0.70;;
17662;SDS011;8950;56.892;15.090;2023-09-19T06:02:20;0.80;;;0.80;;
17662;SDS011;8950;56.892;15.090;2023-09-19T06:04:46;0.80;;;0.80;;
17662;SDS011;8950;56.892;15.090;2023-09-19T06:07:13;2.85;;;2.75;;
17662;SDS011;8950;56.892;15.090;2023-09-19T06:09:41;0.90;;;0.90;;
17662;SDS011;8950;56.892;15.090;2023-09-19T06:12:08;0.85;;;0.85;;
17662;SDS011;8950;56.892;15.090;2023-09-19T06:14:34;0.80;;;0.80;;
17662;SDS011;8950;56.892;15.090;2023-09-19T06:17:00;0.80;;;0.80;;
17662;SDS011;8950;56.892;15.090;2023-09-19T06:19:28;0.90;;;0.90;;
17662;SDS011;8950;56.892;15.090;2023-09-19T06:21:55;0.80;;;0.80;;
17662;SDS011;8950;56.892;15.090;2023-09-19T06:24:21;0.80;;;0.80;;
17662;SDS011;8950;56.892;15.090;2023-09-19T06:26:48;0.77;;;0.77;;
17662;SDS011;8950;56.892;15.090;2023-09-19T06:29:14;0.80;;;0.80;;
17662;SDS011;8950;56.892;15.090;2023-09-19T06:31:40;0.77;;;0.77;;
17662;SDS011;8950;56.892;15.090;2023-09-19T06:34:07;0.63;;;0.63;;
17662;SDS011;8950;56.892;15.090;2023-09-19T06:36:35;0.90;;;0.90;;
17662;SDS011;8950;56.892;15.090;2023-09-19T06:39:01;0.80;;;0.80;;
17662;SDS011;8950;56.892;15.090;2023-09-19T06:41:29;1.23;;;1.23;;
17662;SDS011;8950;56.892;15.090;2023-09-19T06:43:55;0.73;;;0.73;;
17662;SDS011;8950;56.892;15.090;2023-09-19T06:46:22;0.80;;;0.80;;
17662;SDS011;8950;56.892;15.090;2023-09-19T06:48:49;0.80;;;0.80;;
17662;SDS011;8950;56.892;15.090;2023-09-19T06:51:17;0.73;;;0.73;;
17662;SDS011;8950;56.892;15.090;2023-09-19T06:53:45;0.73;;;0.73;;
17662;SDS011;8950;56.892;15.090;2023-09-19T06:56:12;0.90;;;0.90;;
17662;SDS011;8950;56.892;15.090;2023-09-19T06:58:38;0.80;;;0.80;;
17662;SDS011;8950;56.892;15.090;2023-09-19T07:01:05;0.80;;;0.80;;
17662;SDS011;8950;56.892;15.090;2023-09-19T07:03:31;0.80;;;0.80;;
17662;SDS011;8950;56.892;15.090;2023-09-19T07:05:58;0.80;;;0.80;;
17662;SDS011;8950;56.892;15.090;2023-09-19T07:08:25;2.15;;;2.05;;
17662;SDS011;8950;56.892;15.090;2023-09-19T07:10:53;0.70;;;0.70;;
17662;SDS011;8950;56.892;15.090;2023-09-19T07:13:19;0.85;;;0.85;;
17662;SDS011;8950;56.892;15.090;2023-09-19T07:15:45;0.90;;;0.90;;
17662;SDS011;8950;56.892;15.090;2023-09-19T07:18:15;0.80;;;0.80;;
17662;SDS011;8950;56.892;15.090;2023-09-19T07:20:42;0.82;;;0.82;;
17662;SDS011;8950;56.892;15.090;2023-09-19T07:23:14;0.75;;;0.75;;
17662;SDS011;8950;56.892;15.090;2023-09-19T07:25:40;0.90;;;0.90;;
17662;SDS011;8950;56.892;15.090;2023-09-19T07:28:08;0.80;;;0.80;;
17662;SDS011;8950;56.892;15.090;2023-09-19T07:30:35;0.70;;;0.70;;
17662;SDS011;8950;56.892;15.090;2023-09-19T07:33:04;1.13;;;1.13;;
17662;SDS011;8950;56.892;15.090;2023-09-19T07:35:30;1.23;;;1.23;;
17662;SDS011;8950;56.892;15.090;2023-09-19T07:37:57;0.95;;;0.95;;
17662;SDS011;8950;56.892;15.090;2023-09-19T07:40:26;0.80;;;0.80;;
17662;SDS011;8950;56.892;15.090;2023-09-19T07:42:53;0.80;;;0.80;;
17662;SDS011;8950;56.892;15.090;2023-09-19T07:45:21;0.80;;;0.80;;
17662;SDS011;8950;56.892;15.090;2023-09-19T07:47:50;0.80;;;0.80;;
17662;SDS011;8950;56.892;15.090;2023-09-19T07:50:17;0.80;;;0.80;;
17662;SDS011;8950;56.892;15.090;2023-09-19T07:52:44;0.88;;;0.88;;
17662;SDS011;8950;56.892;15.090;2023-09-19T07:55:11;0.75;;;0.75;;
17662;SDS011;8950;56.892;15.090;2023-09-19T07:57:41;0.80;;;0.80;;
17662;SDS011;8950;56.892;15.090;2023-09-19T08:00:09;0.73;;;0.73;;
17662;SDS011;8950;56.892;15.090;2023-09-19T08:02:38;0.80;;;0.80;;
17662;SDS011;8950;56.892;15.090;2023-09-19T08:05:05;0.75;;;0.75;;
17662;SDS011;8950;56.892;15.090;2023-09-19T08:07:34;0.80;;;0.80;;
17662;SDS011;8950;56.892;15.090;2023-09-19T08:10:01;0.80;;;0.80;;
17662;SDS011;8950;56.892;15.090;2023-09-19T08:12:28;0.85;;;0.85;;
17662;SDS011;8950;56.892;15.090;2023-09-19T08:14:55;0.93;;;0.93;;
17662;SDS011;8950;56.892;15.090;2023-09-19T08:17:22;0.80;;;0.80;;
17662;SDS011;8950;56.892;15.090;2023-09-19T08:19:50;1.08;;;1.08;;
17662;SDS011;8950;56.892;15.090;2023-09-19T08:22:17;0.80;;;0.80;;
17662;SDS011;8950;56.892;15.090;2023-09-19T08:24:44;0.95;;;0.95;;
17662;SDS011;8950;56.892;15.090;2023-09-19T08:27:11;0.80;;;0.80;;
17662;SDS011;8950;56.892;15.090;2023-09-19T08:29:37;0.80;;;0.80;;
17662;SDS011;8950;56.892;15.090;2023-09-19T08:32:04;0.90;;;0.90;;
17662;SDS011;8950;56.892;15.090;2023-09-19T08:34:30;0.70;;;0.70;;
17662;SDS011;8950;56.892;15.090;2023-09-19T08:37:00;1.00;;;1.00;;
17662;SDS011;8950;56.892;15.090;2023-09-19T08:39:27;0.70;;;0.70;;
17662;SDS011;8950;56.892;15.090;2023-09-19T08:41:56;0.80;;;0.80;;
17662;SDS011;8950;56.892;15.090;2023-09-19T08:44:23;0.80;;;0.80;;
17662;SDS011;8950;56.892;15.090;2023-09-19T08:46:50;0.80;;;0.80;;
17662;SDS011;8950;56.892;15.090;2023-09-19T08:49:19;0.75;;;0.75;;
17662;SDS011;8950;56.892;15.090;2023-09-19T08:51:51;1.00;;;1.00;;
17662;SDS011;8950;56.892;15.090;2023-09-19T08:54:24;0.80;;;0.80;;
17662;SDS011;8950;56.892;15.090;2023-09-19T08:56:51;0.70;;;0.70;;
17662;SDS011;8950;56.892;15.090;2023-09-19T08:59:20;0.70;;;0.70;;
17662;SDS011;8950;56.892;15.090;2023-09-19T09:01:49;0.70;;;0.70;;
17662;SDS011;8950;56.892;15.090;2023-09-19T09:04:18;1.23;;;1.23;;
17662;SDS011;8950;56.892;15.090;2023-09-19T09:06:45;0.80;;;0.80;;
17662;SDS011;8950;56.892;15.090;2023-09-19T09:09:13;0.80;;;0.80;;
17662;SDS011;8950;56.892;15.090;2023-09-19T09:11:41;0.77;;;0.77;;
17662;SDS011;8950;56.892;15.090;2023-09-19T09:14:07;0.75;;;0.75;;
17662;SDS011;8950;56.892;15.090;2023-09-19T09:16:34;0.85;;;0.85;;
17662;SDS011;8950;56.892;15.090;2023-09-19T09:19:01;0.80;;;0.80;;
17662;SDS011;8950;56.892;15.090;2023-09-19T09:21:27;0.80;;;0.80;;
17662;SDS011;8950;56.892;15.090;2023-09-19T09:23:54;0.70;;;0.70;;
17662;SDS011;8950;56.892;15.090;2023-09-19T09:26:33;0.73;;;0.73;;
17662;SDS011;8950;56.892;15.090;2023-09-19T09:29:08;0.70;;;0.70;;
17662;SDS011;8950;56.892;15.090;2023-09-19T09:31:34;0.80;;;0.80;;
17662;SDS011;8950;56.892;15.090;2023-09-19T09:34:02;1.33;;;1.33;;
17662;SDS011;8950;56.892;15.090;2023-09-19T09:36:38;0.80;;;0.80;;
17662;SDS011;8950;56.892;15.090;2023-09-19T09:39:06;0.80;;;0.80;;
17662;SDS011;8950;56.892;15.090;2023-09-19T09:41:43;0.80;;;0.80;;
17662;SDS011;8950;56.892;15.090;2023-09-19T09:44:15;0.80;;;0.80;;
17662;SDS011;8950;56.892;15.090;2023-09-19T09:46:43;0.90;;;0.90;;
17662;SDS011;8950;56.892;15.090;2023-09-19T09:49:27;0.80;;;0.80;;
17662;SDS011;8950;56.892;15.090;2023-09-19T09:51:59;0.80;;;0.80;;
17662;SDS011;8950;56.892;15.090;2023-09-19T09:54:30;0.80;;;0.80;;
17662;SDS011;8950;56.892;15.090;2023-09-19T09:57:02;0.82;;;0.82;;
17662;SDS011;8950;56.892;15.090;2023-09-19T09:59:49;0.82;;;0.82;;
17662;SDS011;8950;56.892;15.090;2023-09-19T10:02:16;0.80;;;0.80;;
17662;SDS011;8950;56.892;15.090;2023-09-19T10:04:49;0.80;;;0.80;;
17662;SDS011;8950;56.892;15.090;2023-09-19T10:07:24;0.80;;;0.80;;
17662;SDS011;8950;56.892;15.090;2023-09-19T10:09:53;0.70;;;0.70;;
17662;SDS011;8950;56.892;15.090;2023-09-19T10:12:24;0.80;;;0.80;;
17662;SDS011;8950;56.892;15.090;2023-09-19T10:14:55;0.80;;;0.80;;
17662;SDS011;8950;56.892;15.090;2023-09-19T10:17:24;0.80;;;0.80;;
17662;SDS011;8950;56.892;15.090;2023-09-19T10:19:54;0.68;;;0.68;;
17662;SDS011;8950;56.892;15.090;2023-09-19T10:22:22;0.90;;;0.90;;
17662;SDS011;8950;56.892;15.090;2023-09-19T10:24:50;0.80;;;0.80;;
17662;SDS011;8950;56.892;15.090;2023-09-19T10:27:19;0.80;;;0.80;;
17662;SDS011;8950;56.892;15.090;2023-09-19T10:29:45;0.70;;;0.70;;
17662;SDS011;8950;56.892;15.090;2023-09-19T10:32:17;0.75;;;0.75;;
17662;SDS011;8950;56.892;15.090;2023-09-19T10:34:44;0.80;;;0.80;;
17662;SDS011;8950;56.892;15.090;2023-09-19T10:37:11;0.90;;;0.90;;
17662;SDS011;8950;56.892;15.090;2023-09-19T10:39:39;1.05;;;1.05;;
17662;SDS011;8950;56.892;15.090;2023-09-19T10:42:06;0.70;;;0.70;;
17662;SDS011;8950;56.892;15.090;2023-09-19T10:44:34;1.25;;;1.25;;
17662;SDS011;8950;56.892;15.090;2023-09-19T10:47:03;0.90;;;0.90;;
17662;SDS011;8950;56.892;15.090;2023-09-19T10:49:33;0.88;;;0.88;;
17662;SDS011;8950;56.892;15.090;2023-09-19T10:52:00;0.80;;;0.80;;
17662;SDS011;8950;56.892;15.090;2023-09-19T10:54:28;0.80;;;0.80;;
17662;SDS011;8950;56.892;15.090;2023-09-19T10:56:57;0.70;;;0.70;;
17662;SDS011;8950;56.892;15.090;2023-09-19T10:59:24;0.77;;;0.77;;
17662;SDS011;8950;56.892;15.090;2023-09-19T11:01:59;0.90;;;0.90;;
17662;SDS011;8950;56.892;15.090;2023-09-19T11:04:27;0.80;;;0.80;;
17662;SDS011;8950;56.892;15.090;2023-09-19T11:07:02;0.75;;;0.75;;
17662;SDS011;8950;56.892;15.090;2023-09-19T11:09:48;0.80;;;0.80;;
17662;SDS011;8950;56.892;15.090;2023-09-19T11:15:06;0.75;;;0.75;;
17662;SDS011;8950;56.892;15.090;2023-09-19T11:17:35;0.80;;;0.80;;
17662;SDS011;8950;56.892;15.090;2023-09-19T11:20:16;0.80;;;0.80;;
17662;SDS011;8950;56.892;15.090;2023-09-19T11:25:43;0.80;;;0.80;;
17662;SDS011;8950;56.892;15.090;2023-09-19T11:28:29;0.80;;;0.80;;
17662;SDS011;8950;56.892;15.090;2023-09-19T11:30:56;0.80;;;0.80;;
17662;SDS011;8950;56.892;15.090;2023-09-19T11:33:24;0.80;;;0.80;;
17662;SDS011;8950;56.892;15.090;2023-09-19T11:36:00;0.80;;;0.80;;
17662;SDS011;8950;56.892;15.090;2023-09-19T11:46:53;0.75;;;0.75;;
17662;SDS011;8950;56.892;15.090;2023-09-19T11:49:28;0.70;;;0.70;;
17662;SDS011;8950;56.892;15.090;2023-09-19T11:51:57;0.80;;;0.80;;
17662;SDS011;8950;56.892;15.090;2023-09-19T11:54:25;0.63;;;0.63;;
17662;SDS011;8950;56.892;15.090;2023-09-19T11:56:56;0.88;;;0.88;;
17662;SDS011;8950;56.892;15.090;2023-09-19T11:59:24;0.80;;;0.80;;
17662;SDS011;8950;56.892;15.090;2023-09-19T12:01:55;0.82;;;0.82;;
17662;SDS011;8950;56.892;15.090;2023-09-19T12:04:30;0.60;;;0.60;;
17662;SDS011;8950;56.892;15.090;2023-09-19T12:07:02;0.70;;;0.70;;
17662;SDS011;8950;56.892;15.090;2023-09-19T12:09:29;0.80;;;0.80;;
17662;SDS011;8950;56.892;15.090;2023-09-19T12:11:56;0.80;;;0.80;;
17662;SDS011;8950;56.892;15.090;2023-09-19T12:14:23;0.82;;;0.82;;
17662;SDS011;8950;56.892;15.090;2023-09-19T12:16:51;0.70;;;0.70;;
17662;SDS011;8950;56.892;15.090;2023-09-19T12:19:22;0.70;;;0.70;;
17662;SDS011;8950;56.892;15.090;2023-09-19T12:21:55;0.80;;;0.80;;
17662;SDS011;8950;56.892;15.090;2023-09-19T12:24:24;0.82;;;0.82;;
17662;SDS011;8950;56.892;15.090;2023-09-19T12:26:51;0.70;;;0.70;;
17662;SDS011;8950;56.892;15.090;2023-09-19T12:29:19;0.80;;;0.80;;
17662;SDS011;8950;56.892;15.090;2023-09-19T12:31:49;0.70;;;0.70;;
17662;SDS011;8950;56.892;15.090;2023-09-19T12:34:19;0.75;;;0.75;;
17662;SDS011;8950;56.892;15.090;2023-09-19T12:36:47;0.80;;;0.80;;
17662;SDS011;8950;56.892;15.090;2023-09-19T12:39:22;0.63;;;0.63;;
17662;SDS011;8950;56.892;15.090;2023-09-19T12:41:49;0.70;;;0.70;;
17662;SDS011;8950;56.892;15.090;2023-09-19T12:44:15;0.70;;;0.70;;
17662;SDS011;8950;56.892;15.090;2023-09-19T12:46:44;0.75;;;0.75;;
17662;SDS011;8950;56.892;15.090;2023-09-19T12:49:17;0.90;;;0.90;;
17662;SDS011;8950;56.892;15.090;2023-09-19T12:51:43;0.80;;;0.80;;
17662;SDS011;8950;56.892;15.090;2023-09-19T12:54:11;0.85;;;0.85;;
17662;SDS011;8950;56.892;15.090;2023-09-19T12:56:40;0.80;;;0.80;;
17662;SDS011;8950;56.892;15.090;2023-09-19T12:59:09;0.80;;;0.80;;
17662;SDS011;8950;56.892;15.090;2023-09-19T13:01:38;1.30;;;1.25;;
17662;SDS011;8950;56.892;15.090;2023-09-19T13:04:10;11.70;;;2.08;;
17662;SDS011;8950;56.892;15.090;2023-09-19T13:06:38;0.80;;;0.80;;
17662;SDS011;8950;56.892;15.090;2023-09-19T13:09:08;0.80;;;0.80;;
17662;SDS011;8950;56.892;15.090;2023-09-19T13:11:37;0.85;;;0.85;;
17662;SDS011;8950;56.892;15.090;2023-09-19T13:14:18;0.70;;;0.70;;
17662;SDS011;8950;56.892;15.090;2023-09-19T13:16:55;0.77;;;0.77;;
17662;SDS011;8950;56.892;15.090;2023-09-19T13:19:34;0.90;;;0.90;;
17662;SDS011;8950;56.892;15.090;2023-09-19T13:22:01;0.70;;;0.70;;
17662;SDS011;8950;56.892;15.090;2023-09-19T13:24:28;0.80;;;0.80;;
17662;SDS011;8950;56.892;15.090;2023-09-19T13:26:57;0.70;;;0.70;;
17662;SDS011;8950;56.892;15.090;2023-09-19T13:29:25;0.93;;;0.93;;
17662;SDS011;8950;56.892;15.090;2023-09-19T13:31:52;1.83;;;1.73;;
17662;SDS011;8950;56.892;15.090;2023-09-19T13:34:19;0.80;;;0.80;;
17662;SDS011;8950;56.892;15.090;2023-09-19T13:36:46;0.80;;;0.80;;
17662;SDS011;8950;56.892;15.090;2023-09-19T13:39:13;0.70;;;0.70;;
17662;SDS011;8950;56.892;15.090;2023-09-19T13:41:40;0.80;;;0.80;;
17662;SDS011;8950;56.892;15.090;2023-09-19T13:44:09;0.77;;;0.77;;
17662;SDS011;8950;56.892;15.090;2023-09-19T13:46:36;1.20;;;1.20;;
17662;SDS011;8950;56.892;15.090;2023-09-19T13:49:03;0.82;;;0.82;;
17662;SDS011;8950;56.892;15.090;2023-09-19T13:51:30;0.70;;;0.70;;
17662;SDS011;8950;56.892;15.090;2023-09-19T13:53:57;0.85;;;0.85;;
17662;SDS011;8950;56.892;15.090;2023-09-19T13:56:24;0.70;;;0.70;;
17662;SDS011;8950;56.892;15.090;2023-09-19T13:58:53;0.90;;;0.90;;
17662;SDS011;8950;56.892;15.090;2023-09-19T14:01:20;0.80;;;0.80;;
17662;SDS011;8950;56.892;15.090;2023-09-19T14:03:47;0.75;;;0.75;;
17662;SDS011;8950;56.892;15.090;2023-09-19T14:06:15;0.70;;;0.70;;
17662;SDS011;8950;56.892;15.090;2023-09-19T14:08:41;0.70;;;0.70;;
17662;SDS011;8950;56.892;15.090;2023-09-19T14:11:08;0.80;;;0.80;;
17662;SDS011;8950;56.892;15.090;2023-09-19T14:13:35;0.90;;;0.90;;
17662;SDS011;8950;56.892;15.090;2023-09-19T14:16:02;0.90;;;0.90;;
17662;SDS011;8950;56.892;15.090;2023-09-19T14:18:31;0.80;;;0.80;;
17662;SDS011;8950;56.892;15.090;2023-09-19T14:20:58;0.80;;;0.80;;
17662;SDS011;8950;56.892;15.090;2023-09-19T14:23:28;0.70;;;0.70;;
17662;SDS011;8950;56.892;15.090;2023-09-19T14:25:56;0.80;;;0.80;;
17662;SDS011;8950;56.892;15.090;2023-09-19T14:28:22;0.70;;;0.70;;
17662;SDS011;8950;56.892;15.090;2023-09-19T14:30:50;0.70;;;0.70;;
17662;SDS011;8950;56.892;15.090;2023-09-19T14:33:16;0.90;;;0.90;;
17662;SDS011;8950;56.892;15.090;2023-09-19T14:35:44;0.82;;;0.82;;
17662;SDS011;8950;56.892;15.090;2023-09-19T14:38:11;0.90;;;0.90;;
17662;SDS011;8950;56.892;15.090;2023-09-19T14:40:37;0.80;;;0.80;;
17662;SDS011;8950;56.892;15.090;2023-09-19T14:43:04;0.73;;;0.73;;
17662;SDS011;8950;56.892;15.090;2023-09-19T14:45:35;0.73;;;0.73;;
17662;SDS011;8950;56.892;15.090;2023-09-19T14:48:01;1.38;;;1.38;;
17662;SDS011;8950;56.892;15.090;2023-09-19T14:50:30;3.95;;;3.58;;
17662;SDS011;8950;56.892;15.090;2023-09-19T14:52:59;1.13;;;1.13;;
17662;SDS011;8950;56.892;15.090;2023-09-19T14:55:27;33.78;;;6.45;;
17662;SDS011;8950;56.892;15.090;2023-09-19T14:57:54;3.38;;;3.22;;
17662;SDS011;8950;56.892;15.090;2023-09-19T15:00:23;6.20;;;5.65;;
17662;SDS011;8950;56.892;15.090;2023-09-19T15:02:50;19.20;;;7.15;;
17662;SDS011;8950;56.892;15.090;2023-09-19T15:05:17;2.70;;;2.47;;
17662;SDS011;8950;56.892;15.090;2023-09-19T15:07:44;5.97;;;4.90;;
17662;SDS011;8950;56.892;15.090;2023-09-19T15:10:12;4.30;;;3.97;;